Cotton Center, Texas
Current Conditions -  °F | °C
As of 1:15 PM on Monday 20 Oct 2014 (Local Time) from KPVW Reporting Station
Clear Clear  
Wind Chill: 75°   Ceiling: Unl
Heat Index: 75°   Visibility: 10mi
Dew Point: 60°   Wind: 7mph
Humidity: 58%   Direction: 310°NW
Pressure: 30.11"   Gusts: NA
Location:  33.99°N, 101.99°W
Report Text: KPVW 201815Z AUTO 31006KT 10SM CLR 24/15 A3011 RMK AO2 T02400154
Loading
Personal Weather Stations






























Interactive Weather Map
Tropical Storm Tracking
New forecast layout! Learn more

10-Day Weather Forecast

Advertisements
Track Severe Weather on mobile